sensor_id;sensor_type;location;lat;lon;timestamp;P1;durP1;ratioP1;P2;durP2;ratioP2
8532;SDS011;4304;53.876;10.662;2023-03-23T00:01:05;4.70;;;1.40;;
8532;SDS011;4304;53.876;10.662;2023-03-23T00:03:32;2.08;;;1.10;;
8532;SDS011;4304;53.876;10.662;2023-03-23T00:05:58;4.45;;;0.93;;
8532;SDS011;4304;53.876;10.662;2023-03-23T00:08:31;4.60;;;1.17;;
8532;SDS011;4304;53.876;10.662;2023-03-23T00:11:11;11.63;;;1.80;;
8532;SDS011;4304;53.876;10.662;2023-03-23T00:13:39;4.75;;;1.83;;
8532;SDS011;4304;53.876;10.662;2023-03-23T00:16:05;3.63;;;1.60;;
8532;SDS011;4304;53.876;10.662;2023-03-23T00:18:49;9.75;;;2.13;;
8532;SDS011;4304;53.876;10.662;2023-03-23T00:21:21;2.58;;;1.13;;
8532;SDS011;4304;53.876;10.662;2023-03-23T00:23:57;2.40;;;1.63;;
8532;SDS011;4304;53.876;10.662;2023-03-23T00:26:24;3.17;;;2.03;;
8532;SDS011;4304;53.876;10.662;2023-03-23T00:28:53;4.18;;;2.08;;
8532;SDS011;4304;53.876;10.662;2023-03-23T00:31:18;3.53;;;1.80;;
8532;SDS011;4304;53.876;10.662;2023-03-23T00:33:44;1.75;;;1.08;;
8532;SDS011;4304;53.876;10.662;2023-03-23T00:36:10;2.97;;;1.77;;
8532;SDS011;4304;53.876;10.662;2023-03-23T00:38:37;3.25;;;1.42;;
8532;SDS011;4304;53.876;10.662;2023-03-23T00:41:03;8.50;;;1.25;;
8532;SDS011;4304;53.876;10.662;2023-03-23T00:43:30;3.13;;;2.00;;
8532;SDS011;4304;53.876;10.662;2023-03-23T00:45:56;4.97;;;1.42;;
8532;SDS011;4304;53.876;10.662;2023-03-23T00:48:25;2.90;;;2.15;;
8532;SDS011;4304;53.876;10.662;2023-03-23T00:50:51;5.82;;;2.17;;
8532;SDS011;4304;53.876;10.662;2023-03-23T00:53:17;2.72;;;1.70;;
8532;SDS011;4304;53.876;10.662;2023-03-23T00:55:44;3.53;;;2.00;;
8532;SDS011;4304;53.876;10.662;2023-03-23T00:58:10;5.60;;;2.38;;
8532;SDS011;4304;53.876;10.662;2023-03-23T01:00:36;3.90;;;3.00;;
8532;SDS011;4304;53.876;10.662;2023-03-23T01:05:27;7.82;;;1.67;;
8532;SDS011;4304;53.876;10.662;2023-03-23T01:07:56;3.80;;;2.30;;
8532;SDS011;4304;53.876;10.662;2023-03-23T01:10:22;4.38;;;2.88;;
8532;SDS011;4304;53.876;10.662;2023-03-23T01:12:49;2.72;;;1.73;;
8532;SDS011;4304;53.876;10.662;2023-03-23T01:15:16;2.78;;;1.55;;
8532;SDS011;4304;53.876;10.662;2023-03-23T01:17:42;5.10;;;2.40;;
8532;SDS011;4304;53.876;10.662;2023-03-23T01:20:08;9.90;;;2.45;;
8532;SDS011;4304;53.876;10.662;2023-03-23T01:22:35;3.38;;;1.23;;
8532;SDS011;4304;53.876;10.662;2023-03-23T01:27:26;2.78;;;2.30;;
8532;SDS011;4304;53.876;10.662;2023-03-23T01:32:17;2.83;;;2.03;;
8532;SDS011;4304;53.876;10.662;2023-03-23T01:34:42;2.42;;;2.17;;
8532;SDS011;4304;53.876;10.662;2023-03-23T01:39:35;3.78;;;2.92;;
8532;SDS011;4304;53.876;10.662;2023-03-23T01:42:01;2.08;;;1.60;;
8532;SDS011;4304;53.876;10.662;2023-03-23T01:46:55;3.55;;;2.85;;
8532;SDS011;4304;53.876;10.662;2023-03-23T01:54:22;3.17;;;2.10;;
8532;SDS011;4304;53.876;10.662;2023-03-23T01:57:05;5.25;;;2.22;;
8532;SDS011;4304;53.876;10.662;2023-03-23T01:59:35;2.45;;;1.60;;
8532;SDS011;4304;53.876;10.662;2023-03-23T02:02:02;3.42;;;1.73;;
8532;SDS011;4304;53.876;10.662;2023-03-23T02:04:29;3.13;;;1.75;;
8532;SDS011;4304;53.876;10.662;2023-03-23T02:06:55;2.35;;;1.38;;
8532;SDS011;4304;53.876;10.662;2023-03-23T02:09:22;5.63;;;3.00;;
8532;SDS011;4304;53.876;10.662;2023-03-23T02:11:52;4.30;;;2.63;;
8532;SDS011;4304;53.876;10.662;2023-03-23T02:14:18;4.15;;;2.60;;
8532;SDS011;4304;53.876;10.662;2023-03-23T02:35:50;3.63;;;2.72;;
8532;SDS011;4304;53.876;10.662;2023-03-23T02:38:55;3.05;;;1.67;;
8532;SDS011;4304;53.876;10.662;2023-03-23T02:41:18;5.00;;;2.95;;
8532;SDS011;4304;53.876;10.662;2023-03-23T02:43:46;2.22;;;1.55;;
8532;SDS011;4304;53.876;10.662;2023-03-23T02:46:13;4.68;;;2.75;;
8532;SDS011;4304;53.876;10.662;2023-03-23T02:48:39;4.38;;;2.97;;
8532;SDS011;4304;53.876;10.662;2023-03-23T02:51:06;4.40;;;1.95;;
8532;SDS011;4304;53.876;10.662;2023-03-23T02:53:34;4.53;;;3.20;;
8532;SDS011;4304;53.876;10.662;2023-03-23T02:56:02;6.03;;;2.78;;
8532;SDS011;4304;53.876;10.662;2023-03-23T02:58:30;2.45;;;1.77;;
8532;SDS011;4304;53.876;10.662;2023-03-23T03:03:21;7.97;;;2.05;;
8532;SDS011;4304;53.876;10.662;2023-03-23T03:05:57;5.05;;;2.22;;
8532;SDS011;4304;53.876;10.662;2023-03-23T03:08:46;2.17;;;0.98;;
8532;SDS011;4304;53.876;10.662;2023-03-23T03:11:17;6.40;;;3.42;;
8532;SDS011;4304;53.876;10.662;2023-03-23T03:23:50;3.17;;;1.67;;
8532;SDS011;4304;53.876;10.662;2023-03-23T03:26:17;3.17;;;1.90;;
8532;SDS011;4304;53.876;10.662;2023-03-23T03:28:45;3.30;;;1.27;;
8532;SDS011;4304;53.876;10.662;2023-03-23T03:31:13;3.22;;;1.45;;
8532;SDS011;4304;53.876;10.662;2023-03-23T03:33:41;3.47;;;1.98;;
8532;SDS011;4304;53.876;10.662;2023-03-23T03:38:42;2.47;;;1.38;;
8532;SDS011;4304;53.876;10.662;2023-03-23T03:41:09;2.80;;;1.52;;
8532;SDS011;4304;53.876;10.662;2023-03-23T03:46:01;3.13;;;1.90;;
8532;SDS011;4304;53.876;10.662;2023-03-23T03:50:51;2.77;;;1.90;;
8532;SDS011;4304;53.876;10.662;2023-03-23T03:55:42;1.83;;;1.38;;
8532;SDS011;4304;53.876;10.662;2023-03-23T03:58:13;2.22;;;2.03;;
8532;SDS011;4304;53.876;10.662;2023-03-23T04:03:04;1.90;;;1.35;;
8532;SDS011;4304;53.876;10.662;2023-03-23T04:05:29;5.00;;;3.13;;
8532;SDS011;4304;53.876;10.662;2023-03-23T04:10:26;1.75;;;1.00;;
8532;SDS011;4304;53.876;10.662;2023-03-23T04:12:52;3.15;;;1.83;;
8532;SDS011;4304;53.876;10.662;2023-03-23T04:17:43;3.03;;;1.60;;
8532;SDS011;4304;53.876;10.662;2023-03-23T04:20:08;3.35;;;1.85;;
8532;SDS011;4304;53.876;10.662;2023-03-23T04:22:37;3.80;;;2.72;;
8532;SDS011;4304;53.876;10.662;2023-03-23T04:25:03;4.03;;;2.00;;
8532;SDS011;4304;53.876;10.662;2023-03-23T04:27:31;1.67;;;1.00;;
8532;SDS011;4304;53.876;10.662;2023-03-23T04:32:24;4.15;;;3.65;;
8532;SDS011;4304;53.876;10.662;2023-03-23T04:34:54;4.03;;;2.45;;
8532;SDS011;4304;53.876;10.662;2023-03-23T04:37:24;4.72;;;2.03;;
8532;SDS011;4304;53.876;10.662;2023-03-23T04:39:54;3.15;;;1.65;;
8532;SDS011;4304;53.876;10.662;2023-03-23T04:42:29;2.95;;;2.30;;
8532;SDS011;4304;53.876;10.662;2023-03-23T04:44:56;7.15;;;3.25;;
8532;SDS011;4304;53.876;10.662;2023-03-23T04:47:23;3.85;;;3.03;;
8532;SDS011;4304;53.876;10.662;2023-03-23T04:49:49;4.07;;;3.17;;
8532;SDS011;4304;53.876;10.662;2023-03-23T04:52:16;5.00;;;3.20;;
8532;SDS011;4304;53.876;10.662;2023-03-23T04:57:07;5.32;;;2.40;;
8532;SDS011;4304;53.876;10.662;2023-03-23T04:59:33;5.97;;;2.95;;
8532;SDS011;4304;53.876;10.662;2023-03-23T05:01:59;3.78;;;2.28;;
8532;SDS011;4304;53.876;10.662;2023-03-23T05:04:24;8.88;;;2.85;;
8532;SDS011;4304;53.876;10.662;2023-03-23T05:06:50;4.53;;;3.40;;
8532;SDS011;4304;53.876;10.662;2023-03-23T05:09:16;3.70;;;2.60;;
8532;SDS011;4304;53.876;10.662;2023-03-23T05:14:07;8.10;;;2.97;;
8532;SDS011;4304;53.876;10.662;2023-03-23T05:16:32;5.85;;;3.25;;
8532;SDS011;4304;53.876;10.662;2023-03-23T05:18:58;3.65;;;1.67;;
8532;SDS011;4304;53.876;10.662;2023-03-23T05:21:23;6.63;;;3.17;;
8532;SDS011;4304;53.876;10.662;2023-03-23T05:23:49;4.43;;;2.60;;
8532;SDS011;4304;53.876;10.662;2023-03-23T05:26:22;5.10;;;3.22;;
8532;SDS011;4304;53.876;10.662;2023-03-23T05:28:53;5.57;;;2.53;;
8532;SDS011;4304;53.876;10.662;2023-03-23T05:31:20;3.33;;;2.58;;
8532;SDS011;4304;53.876;10.662;2023-03-23T05:33:46;6.18;;;3.20;;
8532;SDS011;4304;53.876;10.662;2023-03-23T05:38:38;2.92;;;2.55;;
8532;SDS011;4304;53.876;10.662;2023-03-23T05:41:07;6.05;;;3.08;;
8532;SDS011;4304;53.876;10.662;2023-03-23T05:43:33;4.38;;;2.53;;
8532;SDS011;4304;53.876;10.662;2023-03-23T05:48:23;3.63;;;2.30;;
8532;SDS011;4304;53.876;10.662;2023-03-23T05:50:49;3.33;;;2.28;;
8532;SDS011;4304;53.876;10.662;2023-03-23T05:55:41;5.00;;;2.83;;
8532;SDS011;4304;53.876;10.662;2023-03-23T05:58:06;4.22;;;2.38;;
8532;SDS011;4304;53.876;10.662;2023-03-23T06:02:57;3.25;;;2.17;;
8532;SDS011;4304;53.876;10.662;2023-03-23T06:07:50;4.13;;;3.05;;
8532;SDS011;4304;53.876;10.662;2023-03-23T06:10:17;7.32;;;2.75;;
8532;SDS011;4304;53.876;10.662;2023-03-23T06:12:42;4.35;;;2.53;;
8532;SDS011;4304;53.876;10.662;2023-03-23T06:15:08;4.07;;;2.70;;
8532;SDS011;4304;53.876;10.662;2023-03-23T06:17:35;6.13;;;3.95;;
8532;SDS011;4304;53.876;10.662;2023-03-23T06:20:01;3.75;;;2.53;;
8532;SDS011;4304;53.876;10.662;2023-03-23T06:22:29;3.30;;;2.78;;
8532;SDS011;4304;53.876;10.662;2023-03-23T06:27:22;4.57;;;2.83;;
8532;SDS011;4304;53.876;10.662;2023-03-23T06:29:48;3.33;;;1.92;;
8532;SDS011;4304;53.876;10.662;2023-03-23T06:34:38;4.27;;;2.80;;
8532;SDS011;4304;53.876;10.662;2023-03-23T06:37:08;3.65;;;3.17;;
8532;SDS011;4304;53.876;10.662;2023-03-23T06:39:34;4.70;;;2.65;;
8532;SDS011;4304;53.876;10.662;2023-03-23T06:42:01;4.97;;;3.90;;
8532;SDS011;4304;53.876;10.662;2023-03-23T06:44:27;4.03;;;2.90;;
8532;SDS011;4304;53.876;10.662;2023-03-23T06:49:17;4.50;;;2.13;;
8532;SDS011;4304;53.876;10.662;2023-03-23T06:51:43;3.65;;;1.92;;
8532;SDS011;4304;53.876;10.662;2023-03-23T06:54:08;3.25;;;1.95;;
8532;SDS011;4304;53.876;10.662;2023-03-23T06:56:34;2.95;;;2.55;;
8532;SDS011;4304;53.876;10.662;2023-03-23T06:59:00;5.15;;;3.00;;
8532;SDS011;4304;53.876;10.662;2023-03-23T07:01:25;10.55;;;2.90;;
8532;SDS011;4304;53.876;10.662;2023-03-23T07:03:53;2.28;;;1.45;;
8532;SDS011;4304;53.876;10.662;2023-03-23T07:06:18;3.50;;;2.33;;
8532;SDS011;4304;53.876;10.662;2023-03-23T07:08:44;3.33;;;1.92;;
8532;SDS011;4304;53.876;10.662;2023-03-23T07:13:35;5.13;;;2.90;;
8532;SDS011;4304;53.876;10.662;2023-03-23T07:16:04;3.15;;;2.35;;
8532;SDS011;4304;53.876;10.662;2023-03-23T07:18:31;2.97;;;2.63;;
8532;SDS011;4304;53.876;10.662;2023-03-23T07:20:56;6.97;;;2.72;;
8532;SDS011;4304;53.876;10.662;2023-03-23T07:23:21;4.83;;;2.27;;
8532;SDS011;4304;53.876;10.662;2023-03-23T07:25:47;4.40;;;2.17;;
8532;SDS011;4304;53.876;10.662;2023-03-23T07:28:13;2.03;;;1.60;;
8532;SDS011;4304;53.876;10.662;2023-03-23T07:30:39;7.35;;;1.30;;
8532;SDS011;4304;53.876;10.662;2023-03-23T07:33:05;3.55;;;1.50;;
8532;SDS011;4304;53.876;10.662;2023-03-23T07:35:32;3.53;;;2.22;;
8532;SDS011;4304;53.876;10.662;2023-03-23T07:37:57;3.88;;;0.70;;
8532;SDS011;4304;53.876;10.662;2023-03-23T07:40:23;3.17;;;1.23;;
8532;SDS011;4304;53.876;10.662;2023-03-23T07:42:53;2.50;;;0.88;;
8532;SDS011;4304;53.876;10.662;2023-03-23T07:45:20;4.80;;;2.80;;
8532;SDS011;4304;53.876;10.662;2023-03-23T07:47:45;8.65;;;2.03;;
8532;SDS011;4304;53.876;10.662;2023-03-23T07:50:10;1.57;;;1.33;;
8532;SDS011;4304;53.876;10.662;2023-03-23T07:52:37;2.83;;;1.52;;
8532;SDS011;4304;53.876;10.662;2023-03-23T07:55:04;3.33;;;2.40;;
8532;SDS011;4304;53.876;10.662;2023-03-23T07:57:30;1.98;;;1.40;;
8532;SDS011;4304;53.876;10.662;2023-03-23T07:59:57;2.10;;;1.20;;
8532;SDS011;4304;53.876;10.662;2023-03-23T08:02:23;1.77;;;1.10;;
8532;SDS011;4304;53.876;10.662;2023-03-23T08:04:49;2.22;;;1.45;;
8532;SDS011;4304;53.876;10.662;2023-03-23T08:07:14;3.50;;;1.83;;
8532;SDS011;4304;53.876;10.662;2023-03-23T08:09:41;3.10;;;2.03;;
8532;SDS011;4304;53.876;10.662;2023-03-23T08:12:07;3.03;;;1.77;;
8532;SDS011;4304;53.876;10.662;2023-03-23T08:14:32;0.98;;;0.43;;
8532;SDS011;4304;53.876;10.662;2023-03-23T08:16:58;2.45;;;2.20;;
8532;SDS011;4304;53.876;10.662;2023-03-23T08:19:23;1.80;;;0.82;;
8532;SDS011;4304;53.876;10.662;2023-03-23T08:21:50;2.67;;;0.98;;
8532;SDS011;4304;53.876;10.662;2023-03-23T08:24:15;3.47;;;2.27;;
8532;SDS011;4304;53.876;10.662;2023-03-23T08:26:41;1.65;;;1.02;;
8532;SDS011;4304;53.876;10.662;2023-03-23T08:29:07;2.53;;;0.55;;
8532;SDS011;4304;53.876;10.662;2023-03-23T08:31:33;3.00;;;1.13;;
8532;SDS011;4304;53.876;10.662;2023-03-23T08:34:03;3.60;;;1.85;;
8532;SDS011;4304;53.876;10.662;2023-03-23T08:36:33;1.85;;;1.02;;
8532;SDS011;4304;53.876;10.662;2023-03-23T08:38:59;1.20;;;1.00;;
8532;SDS011;4304;53.876;10.662;2023-03-23T08:41:24;1.63;;;0.95;;
8532;SDS011;4304;53.876;10.662;2023-03-23T08:43:51;1.42;;;0.52;;
8532;SDS011;4304;53.876;10.662;2023-03-23T08:46:17;1.90;;;0.77;;
8532;SDS011;4304;53.876;10.662;2023-03-23T08:48:44;1.00;;;0.73;;
8532;SDS011;4304;53.876;10.662;2023-03-23T08:51:10;4.70;;;1.63;;
8532;SDS011;4304;53.876;10.662;2023-03-23T08:53:38;0.38;;;0.28;;
8532;SDS011;4304;53.876;10.662;2023-03-23T08:56:07;1.33;;;0.65;;
8532;SDS011;4304;53.876;10.662;2023-03-23T08:58:35;0.82;;;0.45;;
8532;SDS011;4304;53.876;10.662;2023-03-23T09:01:01;1.13;;;0.90;;
8532;SDS011;4304;53.876;10.662;2023-03-23T09:03:27;1.08;;;0.80;;
8532;SDS011;4304;53.876;10.662;2023-03-23T09:05:53;0.52;;;0.20;;
8532;SDS011;4304;53.876;10.662;2023-03-23T09:08:18;0.13;;;0.05;;
8532;SDS011;4304;53.876;10.662;2023-03-23T09:10:44;5.13;;;1.15;;
8532;SDS011;4304;53.876;10.662;2023-03-23T09:13:10;0.63;;;0.40;;
8532;SDS011;4304;53.876;10.662;2023-03-23T09:15:36;0.45;;;0.40;;
8532;SDS011;4304;53.876;10.662;2023-03-23T09:18:01;0.57;;;0.47;;
8532;SDS011;4304;53.876;10.662;2023-03-23T09:20:28;0.88;;;0.68;;
8532;SDS011;4304;53.876;10.662;2023-03-23T09:22:55;0.63;;;0.47;;
8532;SDS011;4304;53.876;10.662;2023-03-23T09:25:22;2.67;;;0.50;;
8532;SDS011;4304;53.876;10.662;2023-03-23T09:27:57;0.40;;;0.20;;
8532;SDS011;4304;53.876;10.662;2023-03-23T09:30:24;0.60;;;0.38;;
8532;SDS011;4304;53.876;10.662;2023-03-23T09:32:51;0.73;;;0.25;;
8532;SDS011;4304;53.876;10.662;2023-03-23T09:35:18;0.73;;;0.52;;
8532;SDS011;4304;53.876;10.662;2023-03-23T09:37:46;0.47;;;0.25;;
8532;SDS011;4304;53.876;10.662;2023-03-23T09:40:20;0.65;;;0.32;;
8532;SDS011;4304;53.876;10.662;2023-03-23T09:45:47;0.20;;;0.10;;
8532;SDS011;4304;53.876;10.662;2023-03-23T09:48:41;0.10;;;0.03;;
8532;SDS011;4304;53.876;10.662;2023-03-23T09:56:44;6.18;;;2.92;;
8532;SDS011;4304;53.876;10.662;2023-03-23T09:59:16;0.75;;;0.45;;
8532;SDS011;4304;53.876;10.662;2023-03-23T10:01:50;0.40;;;0.20;;
8532;SDS011;4304;53.876;10.662;2023-03-23T10:07:11;0.60;;;0.35;;
8532;SDS011;4304;53.876;10.662;2023-03-23T10:09:45;1.13;;;0.82;;
8532;SDS011;4304;53.876;10.662;2023-03-23T10:17:38;1.83;;;0.98;;
8532;SDS011;4304;53.876;10.662;2023-03-23T10:25:41;2.78;;;1.50;;
8532;SDS011;4304;53.876;10.662;2023-03-23T10:28:12;1.33;;;0.80;;
8532;SDS011;4304;53.876;10.662;2023-03-23T10:30:41;0.75;;;0.47;;
8532;SDS011;4304;53.876;10.662;2023-03-23T10:33:17;0.95;;;0.35;;
8532;SDS011;4304;53.876;10.662;2023-03-23T10:35:55;2.40;;;1.15;;
8532;SDS011;4304;53.876;10.662;2023-03-23T10:38:26;1.30;;;0.80;;
8532;SDS011;4304;53.876;10.662;2023-03-23T10:41:06;1.77;;;0.68;;
8532;SDS011;4304;53.876;10.662;2023-03-23T10:43:39;2.30;;;0.73;;
8532;SDS011;4304;53.876;10.662;2023-03-23T10:46:14;1.77;;;0.57;;
8532;SDS011;4304;53.876;10.662;2023-03-23T10:48:46;1.30;;;0.70;;
8532;SDS011;4304;53.876;10.662;2023-03-23T10:51:14;1.92;;;1.10;;
8532;SDS011;4304;53.876;10.662;2023-03-23T10:53:44;1.40;;;0.73;;
8532;SDS011;4304;53.876;10.662;2023-03-23T10:56:22;8.00;;;1.10;;
8532;SDS011;4304;53.876;10.662;2023-03-23T10:58:50;2.95;;;1.38;;
8532;SDS011;4304;53.876;10.662;2023-03-23T11:01:17;2.75;;;0.65;;
8532;SDS011;4304;53.876;10.662;2023-03-23T11:03:46;2.25;;;0.63;;
8532;SDS011;4304;53.876;10.662;2023-03-23T11:06:20;0.98;;;0.60;;
8532;SDS011;4304;53.876;10.662;2023-03-23T11:11:48;11.13;;;0.82;;
8532;SDS011;4304;53.876;10.662;2023-03-23T11:16:52;0.90;;;0.47;;
8532;SDS011;4304;53.876;10.662;2023-03-23T11:19:25;1.00;;;0.77;;
8532;SDS011;4304;53.876;10.662;2023-03-23T11:21:54;3.22;;;0.68;;
8532;SDS011;4304;53.876;10.662;2023-03-23T11:24:31;4.18;;;0.57;;
8532;SDS011;4304;53.876;10.662;2023-03-23T11:27:09;7.10;;;0.57;;
8532;SDS011;4304;53.876;10.662;2023-03-23T11:29:36;2.35;;;0.80;;
8532;SDS011;4304;53.876;10.662;2023-03-23T11:32:11;0.55;;;0.40;;
8532;SDS011;4304;53.876;10.662;2023-03-23T11:34:45;1.08;;;0.52;;
8532;SDS011;4304;53.876;10.662;2023-03-23T11:37:15;0.50;;;0.30;;
8532;SDS011;4304;53.876;10.662;2023-03-23T11:39:53;1.92;;;0.93;;
8532;SDS011;4304;53.876;10.662;2023-03-23T11:42:22;3.58;;;0.98;;
8532;SDS011;4304;53.876;10.662;2023-03-23T11:50:24;5.78;;;1.00;;
8532;SDS011;4304;53.876;10.662;2023-03-23T11:52:59;1.30;;;0.57;;
8532;SDS011;4304;53.876;10.662;2023-03-23T11:58:24;4.80;;;1.23;;
8532;SDS011;4304;53.876;10.662;2023-03-23T12:00:56;2.72;;;1.73;;
8532;SDS011;4304;53.876;10.662;2023-03-23T12:03:30;1.05;;;0.52;;
8532;SDS011;4304;53.876;10.662;2023-03-23T12:06:08;1.83;;;0.40;;
8532;SDS011;4304;53.876;10.662;2023-03-23T12:13:36;1.33;;;1.23;;
8532;SDS011;4304;53.876;10.662;2023-03-23T12:16:20;7.18;;;0.75;;
8532;SDS011;4304;53.876;10.662;2023-03-23T12:18:51;3.40;;;1.20;;
8532;SDS011;4304;53.876;10.662;2023-03-23T12:24:34;4.60;;;1.00;;
8532;SDS011;4304;53.876;10.662;2023-03-23T12:32:51;2.65;;;0.75;;
8532;SDS011;4304;53.876;10.662;2023-03-23T12:35:32;2.85;;;1.20;;
8532;SDS011;4304;53.876;10.662;2023-03-23T12:49:04;0.65;;;0.40;;
8532;SDS011;4304;53.876;10.662;2023-03-23T13:02:28;10.98;;;1.00;;
8532;SDS011;4304;53.876;10.662;2023-03-23T13:04:59;4.95;;;0.50;;
8532;SDS011;4304;53.876;10.662;2023-03-23T13:07:35;1.60;;;0.60;;
8532;SDS011;4304;53.876;10.662;2023-03-23T13:10:26;2.53;;;0.47;;
8532;SDS011;4304;53.876;10.662;2023-03-23T13:12:53;8.50;;;0.57;;
8532;SDS011;4304;53.876;10.662;2023-03-23T13:20:58;3.40;;;0.77;;
8532;SDS011;4304;53.876;10.662;2023-03-23T13:23:36;1.77;;;1.00;;
8532;SDS011;4304;53.876;10.662;2023-03-23T13:31:37;2.20;;;1.10;;
8532;SDS011;4304;53.876;10.662;2023-03-23T13:36:31;0.70;;;0.40;;
8532;SDS011;4304;53.876;10.662;2023-03-23T13:38:57;1.08;;;0.55;;
8532;SDS011;4304;53.876;10.662;2023-03-23T13:41:24;2.08;;;1.00;;
8532;SDS011;4304;53.876;10.662;2023-03-23T13:43:51;3.33;;;1.23;;
8532;SDS011;4304;53.876;10.662;2023-03-23T13:48:49;6.43;;;1.92;;
8532;SDS011;4304;53.876;10.662;2023-03-23T13:51:24;2.22;;;1.27;;
8532;SDS011;4304;53.876;10.662;2023-03-23T13:54:03;1.67;;;1.00;;
8532;SDS011;4304;53.876;10.662;2023-03-23T13:56:36;3.28;;;1.30;;
8532;SDS011;4304;53.876;10.662;2023-03-23T13:59:12;3.28;;;1.58;;
8532;SDS011;4304;53.876;10.662;2023-03-23T14:01:39;2.22;;;1.35;;
8532;SDS011;4304;53.876;10.662;2023-03-23T14:04:09;3.28;;;1.40;;
8532;SDS011;4304;53.876;10.662;2023-03-23T14:09:09;10.23;;;1.30;;
8532;SDS011;4304;53.876;10.662;2023-03-23T14:11:45;2.47;;;0.65;;
8532;SDS011;4304;53.876;10.662;2023-03-23T14:15:02;0.70;;;0.40;;
8532;SDS011;4304;53.876;10.662;2023-03-23T14:17:24;9.18;;;1.65;;
8532;SDS011;4304;53.876;10.662;2023-03-23T14:19:52;1.13;;;0.68;;
8532;SDS011;4304;53.876;10.662;2023-03-23T14:22:40;7.00;;;1.65;;
8532;SDS011;4304;53.876;10.662;2023-03-23T14:25:16;1.35;;;1.10;;
8532;SDS011;4304;53.876;10.662;2023-03-23T14:27:45;1.45;;;0.65;;
8532;SDS011;4304;53.876;10.662;2023-03-23T14:30:15;2.90;;;1.30;;
8532;SDS011;4304;53.876;10.662;2023-03-23T14:32:42;2.15;;;0.60;;
8532;SDS011;4304;53.876;10.662;2023-03-23T14:35:28;1.40;;;0.25;;
8532;SDS011;4304;53.876;10.662;2023-03-23T14:37:55;0.73;;;0.38;;
8532;SDS011;4304;53.876;10.662;2023-03-23T14:40:21;2.80;;;0.75;;
8532;SDS011;4304;53.876;10.662;2023-03-23T14:42:47;2.15;;;0.88;;
8532;SDS011;4304;53.876;10.662;2023-03-23T14:45:17;1.27;;;0.70;;
8532;SDS011;4304;53.876;10.662;2023-03-23T14:47:54;2.65;;;0.82;;
8532;SDS011;4304;53.876;10.662;2023-03-23T14:56:23;4.35;;;0.50;;
8532;SDS011;4304;53.876;10.662;2023-03-23T14:58:52;0.52;;;0.40;;
8532;SDS011;4304;53.876;10.662;2023-03-23T15:01:19;0.65;;;0.35;;
8532;SDS011;4304;53.876;10.662;2023-03-23T15:04:00;1.85;;;0.88;;
8532;SDS011;4304;53.876;10.662;2023-03-23T15:06:30;1.40;;;0.13;;
8532;SDS011;4304;53.876;10.662;2023-03-23T15:08:58;1.52;;;0.88;;
8532;SDS011;4304;53.876;10.662;2023-03-23T15:11:30;0.70;;;0.10;;
8532;SDS011;4304;53.876;10.662;2023-03-23T15:13:59;0.68;;;0.32;;
8532;SDS011;4304;53.876;10.662;2023-03-23T15:16:32;0.60;;;0.38;;
8532;SDS011;4304;53.876;10.662;2023-03-23T15:19:03;1.98;;;0.30;;
8532;SDS011;4304;53.876;10.662;2023-03-23T15:21:31;1.25;;;0.93;;
8532;SDS011;4304;53.876;10.662;2023-03-23T15:24:02;0.52;;;0.32;;
8532;SDS011;4304;53.876;10.662;2023-03-23T15:26:43;0.17;;;0.15;;
8532;SDS011;4304;53.876;10.662;2023-03-23T15:31:45;1.75;;;0.40;;
8532;SDS011;4304;53.876;10.662;2023-03-23T15:34:18;1.08;;;0.65;;
8532;SDS011;4304;53.876;10.662;2023-03-23T15:36:50;0.40;;;0.30;;
8532;SDS011;4304;53.876;10.662;2023-03-23T15:39:17;0.57;;;0.40;;
8532;SDS011;4304;53.876;10.662;2023-03-23T15:41:46;0.35;;;0.20;;
8532;SDS011;4304;53.876;10.662;2023-03-23T15:44:24;0.40;;;0.38;;
8532;SDS011;4304;53.876;10.662;2023-03-23T15:46:52;0.22;;;0.20;;
8532;SDS011;4304;53.876;10.662;2023-03-23T15:49:26;1.45;;;0.40;;
8532;SDS011;4304;53.876;10.662;2023-03-23T15:51:51;0.77;;;0.65;;
8532;SDS011;4304;53.876;10.662;2023-03-23T15:54:16;0.70;;;0.30;;
8532;SDS011;4304;53.876;10.662;2023-03-23T15:56:42;0.80;;;0.25;;
8532;SDS011;4304;53.876;10.662;2023-03-23T15:59:08;2.28;;;0.30;;
8532;SDS011;4304;53.876;10.662;2023-03-23T16:01:34;1.75;;;0.43;;
8532;SDS011;4304;53.876;10.662;2023-03-23T16:04:06;0.68;;;0.22;;
8532;SDS011;4304;53.876;10.662;2023-03-23T16:06:34;1.17;;;1.02;;
8532;SDS011;4304;53.876;10.662;2023-03-23T16:09:01;0.90;;;0.60;;
8532;SDS011;4304;53.876;10.662;2023-03-23T16:11:28;0.65;;;0.57;;
8532;SDS011;4304;53.876;10.662;2023-03-23T16:13:56;1.08;;;0.68;;
8532;SDS011;4304;53.876;10.662;2023-03-23T16:16:32;1.08;;;0.43;;
8532;SDS011;4304;53.876;10.662;2023-03-23T16:19:00;0.63;;;0.57;;
8532;SDS011;4304;53.876;10.662;2023-03-23T16:21:25;2.15;;;0.63;;
8532;SDS011;4304;53.876;10.662;2023-03-23T16:23:50;0.43;;;0.20;;
8532;SDS011;4304;53.876;10.662;2023-03-23T16:26:16;0.98;;;0.28;;
8532;SDS011;4304;53.876;10.662;2023-03-23T16:28:42;5.57;;;0.70;;
8532;SDS011;4304;53.876;10.662;2023-03-23T16:31:07;5.22;;;0.73;;
8532;SDS011;4304;53.876;10.662;2023-03-23T16:33:33;1.27;;;0.88;;
8532;SDS011;4304;53.876;10.662;2023-03-23T16:35:58;1.90;;;0.83;;
8532;SDS011;4304;53.876;10.662;2023-03-23T16:38:24;2.35;;;0.80;;
8532;SDS011;4304;53.876;10.662;2023-03-23T16:40:50;0.38;;;0.22;;
8532;SDS011;4304;53.876;10.662;2023-03-23T16:43:15;3.22;;;1.00;;
8532;SDS011;4304;53.876;10.662;2023-03-23T16:45:41;2.05;;;0.22;;
8532;SDS011;4304;53.876;10.662;2023-03-23T16:48:08;0.73;;;0.35;;
8532;SDS011;4304;53.876;10.662;2023-03-23T16:50:35;1.55;;;0.90;;
8532;SDS011;4304;53.876;10.662;2023-03-23T16:53:01;0.38;;;0.28;;
8532;SDS011;4304;53.876;10.662;2023-03-23T16:55:26;1.27;;;0.35;;
8532;SDS011;4304;53.876;10.662;2023-03-23T16:57:52;1.85;;;1.13;;
8532;SDS011;4304;53.876;10.662;2023-03-23T17:00:19;0.95;;;0.50;;
8532;SDS011;4304;53.876;10.662;2023-03-23T17:02:45;3.72;;;0.98;;
8532;SDS011;4304;53.876;10.662;2023-03-23T17:05:11;1.30;;;0.65;;
8532;SDS011;4304;53.876;10.662;2023-03-23T17:07:38;0.65;;;0.30;;
8532;SDS011;4304;53.876;10.662;2023-03-23T17:10:04;5.07;;;1.25;;
8532;SDS011;4304;53.876;10.662;2023-03-23T17:12:31;1.35;;;0.90;;
8532;SDS011;4304;53.876;10.662;2023-03-23T17:14:57;1.02;;;0.82;;
8532;SDS011;4304;53.876;10.662;2023-03-23T17:17:22;2.30;;;1.23;;
8532;SDS011;4304;53.876;10.662;2023-03-23T17:19:48;2.08;;;0.80;;
8532;SDS011;4304;53.876;10.662;2023-03-23T17:22:13;1.30;;;0.57;;
8532;SDS011;4304;53.876;10.662;2023-03-23T17:27:04;2.30;;;0.90;;
8532;SDS011;4304;53.876;10.662;2023-03-23T17:29:29;3.28;;;1.77;;
8532;SDS011;4304;53.876;10.662;2023-03-23T17:34:20;4.00;;;1.47;;
8532;SDS011;4304;53.876;10.662;2023-03-23T17:36:46;0.60;;;0.30;;
8532;SDS011;4304;53.876;10.662;2023-03-23T17:39:11;0.93;;;0.60;;
8532;SDS011;4304;53.876;10.662;2023-03-23T17:41:36;1.03;;;0.53;;
8532;SDS011;4304;53.876;10.662;2023-03-23T17:44:02;1.02;;;0.47;;
8532;SDS011;4304;53.876;10.662;2023-03-23T17:48:52;0.70;;;0.50;;
8532;SDS011;4304;53.876;10.662;2023-03-23T17:53:43;3.30;;;1.00;;
8532;SDS011;4304;53.876;10.662;2023-03-23T17:58:34;1.13;;;0.30;;
8532;SDS011;4304;53.876;10.662;2023-03-23T18:01:00;6.00;;;0.70;;
8532;SDS011;4304;53.876;10.662;2023-03-23T18:03:25;1.45;;;0.93;;
8532;SDS011;4304;53.876;10.662;2023-03-23T18:05:56;2.03;;;0.98;;
8532;SDS011;4304;53.876;10.662;2023-03-23T18:08:22;0.77;;;0.77;;
8532;SDS011;4304;53.876;10.662;2023-03-23T18:10:50;0.77;;;0.22;;
8532;SDS011;4304;53.876;10.662;2023-03-23T18:15:42;1.07;;;0.97;;
8532;SDS011;4304;53.876;10.662;2023-03-23T18:18:08;0.98;;;0.77;;
8532;SDS011;4304;53.876;10.662;2023-03-23T18:22:59;0.98;;;0.63;;
8532;SDS011;4304;53.876;10.662;2023-03-23T18:27:50;0.83;;;0.57;;
8532;SDS011;4304;53.876;10.662;2023-03-23T18:32:41;0.43;;;0.13;;
8532;SDS011;4304;53.876;10.662;2023-03-23T18:35:07;0.63;;;0.40;;
8532;SDS011;4304;53.876;10.662;2023-03-23T18:37:34;0.82;;;0.73;;
8532;SDS011;4304;53.876;10.662;2023-03-23T18:40:01;2.35;;;1.05;;
8532;SDS011;4304;53.876;10.662;2023-03-23T18:44:54;1.20;;;0.60;;
8532;SDS011;4304;53.876;10.662;2023-03-23T18:47:20;8.48;;;2.22;;